sensor_id;sensor_type;location;lat;lon;timestamp;pressure;altitude;pressure_sealevel;temperature;humidity
53868;BME280;41577;47.470;19.080;2022-12-07T00:00:06;100135.34;;;2.07;100.00
53868;BME280;41577;47.470;19.080;2022-12-07T00:00:23;100134.50;;;2.07;100.00
53868;BME280;41577;47.470;19.080;2022-12-07T00:00:37;100130.22;;;2.06;100.00
53868;BME280;41577;47.470;19.080;2022-12-07T00:00:51;100138.81;;;2.08;100.00
53868;BME280;41577;47.470;19.080;2022-12-07T00:01:07;100139.78;;;2.07;100.00
53868;BME280;41577;47.470;19.080;2022-12-07T00:01:25;100136.31;;;2.06;100.00
53868;BME280;41577;47.470;19.080;2022-12-07T00:01:44;100135.34;;;2.07;100.00
53868;BME280;41577;47.470;19.080;2022-12-07T00:01:58;100139.78;;;2.07;100.00
53868;BME280;41577;47.470;19.080;2022-12-07T00:02:12;100136.31;;;2.06;100.00
53868;BME280;41577;47.470;19.080;2022-12-07T00:02:26;100136.31;;;2.06;100.00
53868;BME280;41577;47.470;19.080;2022-12-07T00:02:41;100137.97;;;2.07;100.00
53868;BME280;41577;47.470;19.080;2022-12-07T00:02:56;100138.13;;;2.06;100.00
53868;BME280;41577;47.470;19.080;2022-12-07T00:03:11;100141.59;;;2.06;100.00
53868;BME280;41577;47.470;19.080;2022-12-07T00:03:26;100150.31;;;2.07;100.00
53868;BME280;41577;47.470;19.080;2022-12-07T00:03:44;100138.13;;;2.06;100.00
53868;BME280;41577;47.470;19.080;2022-12-07T00:04:00;100144.34;;;2.05;100.00
53868;BME280;41577;47.470;19.080;2022-12-07T00:04:17;100145.19;;;2.05;100.00
53868;BME280;41577;47.470;19.080;2022-12-07T00:04:33;100148.66;;;2.06;100.00
53868;BME280;41577;47.470;19.080;2022-12-07T00:04:48;100144.34;;;2.05;100.00
53868;BME280;41577;47.470;19.080;2022-12-07T00:05:02;100148.66;;;2.06;100.00
53868;BME280;41577;47.470;19.080;2022-12-07T00:05:16;100140.75;;;2.06;100.00
53868;BME280;41577;47.470;19.080;2022-12-07T00:05:30;100149.59;;;2.05;100.00
53868;BME280;41577;47.470;19.080;2022-12-07T00:05:46;100136.44;;;2.05;100.00
53868;BME280;41577;47.470;19.080;2022-12-07T00:06:00;100132.16;;;2.04;100.00
53868;BME280;41577;47.470;19.080;2022-12-07T00:06:17;100138.25;;;2.04;100.00
53868;BME280;41577;47.470;19.080;2022-12-07T00:06:32;100147.84;;;2.05;100.00
53868;BME280;41577;47.470;19.080;2022-12-07T00:06:51;100146.03;;;2.06;100.00
53868;BME280;41577;47.470;19.080;2022-12-07T00:07:06;100144.34;;;2.05;100.00
53868;BME280;41577;47.470;19.080;2022-12-07T00:07:21;100135.63;;;2.04;100.00
53868;BME280;41577;47.470;19.080;2022-12-07T00:07:35;100142.69;;;2.04;100.00
53868;BME280;41577;47.470;19.080;2022-12-07T00:07:49;100139.06;;;2.05;100.00
53868;BME280;41577;47.470;19.080;2022-12-07T00:08:05;100140.75;;;2.06;100.00
53868;BME280;41577;47.470;19.080;2022-12-07T00:08:19;100139.94;;;2.05;100.00
53868;BME280;41577;47.470;19.080;2022-12-07T00:08:34;100146.03;;;2.06;100.00
53868;BME280;41577;47.470;19.080;2022-12-07T00:08:51;100142.56;;;2.05;100.00
53868;BME280;41577;47.470;19.080;2022-12-07T00:09:05;100139.06;;;2.05;100.00
53868;BME280;41577;47.470;19.080;2022-12-07T00:09:20;100138.25;;;2.04;100.00
53868;BME280;41577;47.470;19.080;2022-12-07T00:09:34;100141.00;;;2.03;100.00
53868;BME280;41577;47.470;19.080;2022-12-07T00:09:48;100136.44;;;2.05;100.00
53868;BME280;41577;47.470;19.080;2022-12-07T00:10:04;100137.44;;;2.04;100.00
53868;BME280;41577;47.470;19.080;2022-12-07T00:10:19;100136.59;;;2.03;100.00
53868;BME280;41577;47.470;19.080;2022-12-07T00:10:33;100135.75;;;2.03;100.00
53868;BME280;41577;47.470;19.080;2022-12-07T00:10:48;100133.97;;;2.03;100.00
53868;BME280;41577;47.470;19.080;2022-12-07T00:11:05;100131.34;;;2.03;100.00
53868;BME280;41577;47.470;19.080;2022-12-07T00:11:22;100131.47;;;2.02;100.00
53868;BME280;41577;47.470;19.080;2022-12-07T00:11:37;100133.97;;;2.03;100.00
53868;BME280;41577;47.470;19.080;2022-12-07T00:11:52;100129.66;;;2.02;100.00
53868;BME280;41577;47.470;19.080;2022-12-07T00:12:08;100129.66;;;2.02;100.00
53868;BME280;41577;47.470;19.080;2022-12-07T00:12:22;100128.00;;;2.01;100.00
53868;BME280;41577;47.470;19.080;2022-12-07T00:12:36;100129.66;;;2.02;100.00
53868;BME280;41577;47.470;19.080;2022-12-07T00:12:50;100127.19;;;2.01;100.00
53868;BME280;41577;47.470;19.080;2022-12-07T00:13:07;100123.56;;;2.02;100.00
53868;BME280;41577;47.470;19.080;2022-12-07T00:13:20;100128.94;;;2.00;100.00
53868;BME280;41577;47.470;19.080;2022-12-07T00:13:37;100128.00;;;2.01;100.00
53868;BME280;41577;47.470;19.080;2022-12-07T00:13:54;100124.53;;;2.01;100.00
53868;BME280;41577;47.470;19.080;2022-12-07T00:14:12;100122.84;;;2.00;100.00
53868;BME280;41577;47.470;19.080;2022-12-07T00:14:26;100125.50;;;2.00;100.00
53868;BME280;41577;47.470;19.080;2022-12-07T00:14:41;100127.31;;;1.99;100.00
53868;BME280;41577;47.470;19.080;2022-12-07T00:14:57;100122.84;;;2.00;100.00
53868;BME280;41577;47.470;19.080;2022-12-07T00:15:12;100124.66;;;1.99;100.00
53868;BME280;41577;47.470;19.080;2022-12-07T00:15:27;100123.00;;;1.98;100.00
53868;BME280;41577;47.470;19.080;2022-12-07T00:15:41;100120.34;;;1.98;100.00
53868;BME280;41577;47.470;19.080;2022-12-07T00:15:59;100135.19;;;1.99;100.00
53868;BME280;41577;47.470;19.080;2022-12-07T00:16:18;100119.53;;;1.98;100.00
53868;BME280;41577;47.470;19.080;2022-12-07T00:16:33;100129.09;;;1.99;100.00
53868;BME280;41577;47.470;19.080;2022-12-07T00:16:50;100125.63;;;1.98;100.00
53868;BME280;41577;47.470;19.080;2022-12-07T00:17:04;100121.22;;;1.99;100.00
53868;BME280;41577;47.470;19.080;2022-12-07T00:17:18;100120.34;;;1.98;100.00
53868;BME280;41577;47.470;19.080;2022-12-07T00:17:33;100134.38;;;1.99;100.00
53868;BME280;41577;47.470;19.080;2022-12-07T00:17:48;100131.03;;;1.97;100.00
53868;BME280;41577;47.470;19.080;2022-12-07T00:18:03;100127.44;;;1.98;100.00
53868;BME280;41577;47.470;19.080;2022-12-07T00:18:18;100123.97;;;1.97;100.00
53868;BME280;41577;47.470;19.080;2022-12-07T00:18:33;100119.69;;;1.96;100.00
53868;BME280;41577;47.470;19.080;2022-12-07T00:18:47;100124.94;;;1.96;100.00
53868;BME280;41577;47.470;19.080;2022-12-07T00:19:04;100122.16;;;1.98;100.00
53868;BME280;41577;47.470;19.080;2022-12-07T00:19:18;100130.88;;;1.98;100.00
53868;BME280;41577;47.470;19.080;2022-12-07T00:19:32;100126.59;;;1.97;100.00
53868;BME280;41577;47.470;19.080;2022-12-07T00:19:46;100135.34;;;1.98;100.00
53868;BME280;41577;47.470;19.080;2022-12-07T00:20:00;100131.03;;;1.97;100.00
53868;BME280;41577;47.470;19.080;2022-12-07T00:20:17;100124.09;;;1.96;100.00
53868;BME280;41577;47.470;19.080;2022-12-07T00:20:31;100125.09;;;1.95;100.00
53868;BME280;41577;47.470;19.080;2022-12-07T00:20:45;100128.53;;;1.95;100.00
53868;BME280;41577;47.470;19.080;2022-12-07T00:20:59;100125.91;;;1.95;100.00
53868;BME280;41577;47.470;19.080;2022-12-07T00:21:18;100125.09;;;1.95;100.00
53868;BME280;41577;47.470;19.080;2022-12-07T00:21:33;100126.88;;;1.94;100.00
53868;BME280;41577;47.470;19.080;2022-12-07T00:21:48;100127.84;;;1.93;100.00
53868;BME280;41577;47.470;19.080;2022-12-07T00:22:02;100123.41;;;1.94;100.00
53868;BME280;41577;47.470;19.080;2022-12-07T00:22:17;100125.38;;;1.92;100.00
53868;BME280;41577;47.470;19.080;2022-12-07T00:22:31;100126.31;;;1.91;100.00
53868;BME280;41577;47.470;19.080;2022-12-07T00:22:45;100131.47;;;1.92;100.00
53868;BME280;41577;47.470;19.080;2022-12-07T00:23:00;100123.69;;;1.91;100.00
53868;BME280;41577;47.470;19.080;2022-12-07T00:23:14;100126.44;;;1.89;100.00
53868;BME280;41577;47.470;19.080;2022-12-07T00:23:28;100125.50;;;1.90;100.00
53868;BME280;41577;47.470;19.080;2022-12-07T00:23:43;100134.22;;;1.91;100.00
53868;BME280;41577;47.470;19.080;2022-12-07T00:23:57;100126.31;;;1.91;100.00
53868;BME280;41577;47.470;19.080;2022-12-07T00:24:11;100124.66;;;1.90;100.00
53868;BME280;41577;47.470;19.080;2022-12-07T00:24:25;100126.31;;;1.91;100.00
53868;BME280;41577;47.470;19.080;2022-12-07T00:24:41;100122.03;;;1.90;100.00
53868;BME280;41577;47.470;19.080;2022-12-07T00:24:55;100125.50;;;1.90;100.00
53868;BME280;41577;47.470;19.080;2022-12-07T00:25:10;100115.78;;;1.91;100.00
53868;BME280;41577;47.470;19.080;2022-12-07T00:25:27;100122.03;;;1.90;100.00
53868;BME280;41577;47.470;19.080;2022-12-07T00:25:41;100125.50;;;1.90;100.00
53868;BME280;41577;47.470;19.080;2022-12-07T00:26:03;100119.41;;;1.90;100.00
53868;BME280;41577;47.470;19.080;2022-12-07T00:26:18;100122.03;;;1.90;100.00
53868;BME280;41577;47.470;19.080;2022-12-07T00:26:33;100120.34;;;1.88;100.00
53868;BME280;41577;47.470;19.080;2022-12-07T00:26:48;100121.19;;;1.89;100.00
53868;BME280;41577;47.470;19.080;2022-12-07T00:27:02;100122.16;;;1.88;100.00
53868;BME280;41577;47.470;19.080;2022-12-07T00:27:16;100117.72;;;1.88;100.00
53868;BME280;41577;47.470;19.080;2022-12-07T00:27:32;100119.53;;;1.88;100.00
53868;BME280;41577;47.470;19.080;2022-12-07T00:27:46;100115.22;;;1.87;100.00
53868;BME280;41577;47.470;19.080;2022-12-07T00:28:00;100122.28;;;1.86;100.00
53868;BME280;41577;47.470;19.080;2022-12-07T00:28:14;100126.72;;;1.86;100.00
53868;BME280;41577;47.470;19.080;2022-12-07T00:28:28;100118.00;;;1.85;100.00
53868;BME280;41577;47.470;19.080;2022-12-07T00:28:45;100120.63;;;1.85;100.00
53868;BME280;41577;47.470;19.080;2022-12-07T00:29:04;100117.31;;;1.83;100.00
53868;BME280;41577;47.470;19.080;2022-12-07T00:29:19;100117.19;;;1.85;100.00
53868;BME280;41577;47.470;19.080;2022-12-07T00:29:35;100118.13;;;1.84;100.00
53868;BME280;41577;47.470;19.080;2022-12-07T00:29:51;100111.22;;;1.83;100.00
53868;BME280;41577;47.470;19.080;2022-12-07T00:30:08;100118.25;;;1.82;100.00
53868;BME280;41577;47.470;19.080;2022-12-07T00:30:22;100113.00;;;1.82;100.00
53868;BME280;41577;47.470;19.080;2022-12-07T00:30:37;100110.34;;;1.82;100.00
53868;BME280;41577;47.470;19.080;2022-12-07T00:30:52;100121.88;;;1.81;100.00
53868;BME280;41577;47.470;19.080;2022-12-07T00:31:14;100116.59;;;1.81;100.00
53868;BME280;41577;47.470;19.080;2022-12-07T00:31:31;100118.41;;;1.81;100.00
53868;BME280;41577;47.470;19.080;2022-12-07T00:31:46;100112.16;;;1.82;100.00
53868;BME280;41577;47.470;19.080;2022-12-07T00:32:01;100119.25;;;1.81;100.00
53868;BME280;41577;47.470;19.080;2022-12-07T00:32:15;100118.25;;;1.82;100.00
53868;BME280;41577;47.470;19.080;2022-12-07T00:32:29;100115.78;;;1.81;100.00
53868;BME280;41577;47.470;19.080;2022-12-07T00:32:43;100117.59;;;1.80;100.00
53868;BME280;41577;47.470;19.080;2022-12-07T00:32:57;100111.47;;;1.80;100.00
53868;BME280;41577;47.470;19.080;2022-12-07T00:33:11;100114.09;;;1.80;100.00
53868;BME280;41577;47.470;19.080;2022-12-07T00:33:26;100112.31;;;1.80;100.00
53868;BME280;41577;47.470;19.080;2022-12-07T00:33:44;100112.31;;;1.80;100.00
53868;BME280;41577;47.470;19.080;2022-12-07T00:33:57;100116.72;;;1.80;100.00
53868;BME280;41577;47.470;19.080;2022-12-07T00:34:13;100115.91;;;1.79;100.00
53868;BME280;41577;47.470;19.080;2022-12-07T00:34:29;100115.91;;;1.79;100.00
53868;BME280;41577;47.470;19.080;2022-12-07T00:34:44;100113.28;;;1.79;100.00
53868;BME280;41577;47.470;19.080;2022-12-07T00:35:01;100118.53;;;1.79;100.00
53868;BME280;41577;47.470;19.080;2022-12-07T00:35:15;100114.25;;;1.78;100.00
53868;BME280;41577;47.470;19.080;2022-12-07T00:35:30;100105.50;;;1.78;100.00
53868;BME280;41577;47.470;19.080;2022-12-07T00:35:47;100112.44;;;1.79;100.00
53868;BME280;41577;47.470;19.080;2022-12-07T00:36:10;100109.81;;;1.79;100.00
53868;BME280;41577;47.470;19.080;2022-12-07T00:36:30;100109.81;;;1.79;100.00
53868;BME280;41577;47.470;19.080;2022-12-07T00:36:45;100109.00;;;1.78;100.00
53868;BME280;41577;47.470;19.080;2022-12-07T00:36:59;100111.47;;;1.80;100.00
53868;BME280;41577;47.470;19.080;2022-12-07T00:37:13;100115.09;;;1.79;100.00
53868;BME280;41577;47.470;19.080;2022-12-07T00:37:27;100108.00;;;1.79;100.00
53868;BME280;41577;47.470;19.080;2022-12-07T00:37:41;100104.69;;;1.77;100.00
53868;BME280;41577;47.470;19.080;2022-12-07T00:37:56;100107.31;;;1.77;100.00
53868;BME280;41577;47.470;19.080;2022-12-07T00:38:10;100107.31;;;1.77;100.00
53868;BME280;41577;47.470;19.080;2022-12-07T00:38:27;100112.56;;;1.77;100.00
53868;BME280;41577;47.470;19.080;2022-12-07T00:38:44;100107.31;;;1.77;100.00
53868;BME280;41577;47.470;19.080;2022-12-07T00:38:59;100112.56;;;1.77;100.00
53868;BME280;41577;47.470;19.080;2022-12-07T00:39:15;100116.03;;;1.78;100.00
53868;BME280;41577;47.470;19.080;2022-12-07T00:39:30;100092.75;;;1.73;100.00
53868;BME280;41577;47.470;19.080;2022-12-07T00:39:45;100103.97;;;1.75;100.00
53868;BME280;41577;47.470;19.080;2022-12-07T00:39:59;100107.47;;;1.76;100.00
53868;BME280;41577;47.470;19.080;2022-12-07T00:40:13;100110.94;;;1.76;100.00
53868;BME280;41577;47.470;19.080;2022-12-07T00:40:33;100104.97;;;1.74;100.00
53868;BME280;41577;47.470;19.080;2022-12-07T00:40:58;100112.72;;;1.76;100.00
53868;BME280;41577;47.470;19.080;2022-12-07T00:41:13;100108.41;;;1.75;100.00
53868;BME280;41577;47.470;19.080;2022-12-07T00:41:28;100112.72;;;1.76;100.00
53868;BME280;41577;47.470;19.080;2022-12-07T00:41:43;100106.78;;;1.74;100.00
53868;BME280;41577;47.470;19.080;2022-12-07T00:41:58;100108.41;;;1.75;100.00
53868;BME280;41577;47.470;19.080;2022-12-07T00:42:12;100107.59;;;1.74;100.00
53868;BME280;41577;47.470;19.080;2022-12-07T00:42:26;100109.41;;;1.74;100.00
53868;BME280;41577;47.470;19.080;2022-12-07T00:42:40;100115.50;;;1.74;100.00
53868;BME280;41577;47.470;19.080;2022-12-07T00:42:54;100107.59;;;1.74;100.00
53868;BME280;41577;47.470;19.080;2022-12-07T00:43:08;100110.22;;;1.74;100.00
53868;BME280;41577;47.470;19.080;2022-12-07T00:43:22;100111.19;;;1.73;100.00
53868;BME280;41577;47.470;19.080;2022-12-07T00:43:36;100114.66;;;1.74;100.00
53868;BME280;41577;47.470;19.080;2022-12-07T00:43:51;100105.91;;;1.73;100.00
53868;BME280;41577;47.470;19.080;2022-12-07T00:44:07;100109.41;;;1.74;100.00
53868;BME280;41577;47.470;19.080;2022-12-07T00:44:22;100105.91;;;1.73;100.00
53868;BME280;41577;47.470;19.080;2022-12-07T00:44:37;100107.59;;;1.74;100.00
53868;BME280;41577;47.470;19.080;2022-12-07T00:44:52;100113.81;;;1.73;100.00
53868;BME280;41577;47.470;19.080;2022-12-07T00:45:08;100116.31;;;1.75;100.00
53868;BME280;41577;47.470;19.080;2022-12-07T00:45:24;100105.91;;;1.73;100.00
53868;BME280;41577;47.470;19.080;2022-12-07T00:45:38;100110.22;;;1.74;100.00
53868;BME280;41577;47.470;19.080;2022-12-07T00:45:52;100112.84;;;1.74;100.00
53868;BME280;41577;47.470;19.080;2022-12-07T00:46:07;100109.41;;;1.74;100.00
53868;BME280;41577;47.470;19.080;2022-12-07T00:46:23;100108.53;;;1.73;100.00
53868;BME280;41577;47.470;19.080;2022-12-07T00:46:38;100112.03;;;1.74;100.00
53868;BME280;41577;47.470;19.080;2022-12-07T00:46:53;100109.41;;;1.74;100.00
53868;BME280;41577;47.470;19.080;2022-12-07T00:47:09;100109.41;;;1.74;100.00
53868;BME280;41577;47.470;19.080;2022-12-07T00:47:24;100111.06;;;1.75;100.00
53868;BME280;41577;47.470;19.080;2022-12-07T00:47:39;100107.59;;;1.74;100.00
53868;BME280;41577;47.470;19.080;2022-12-07T00:48:00;100104.25;;;1.72;100.00
53868;BME280;41577;47.470;19.080;2022-12-07T00:48:15;100102.31;;;1.74;100.00
53868;BME280;41577;47.470;19.080;2022-12-07T00:48:31;100104.13;;;1.74;100.00
53868;BME280;41577;47.470;19.080;2022-12-07T00:48:46;100112.03;;;1.74;100.00
53868;BME280;41577;47.470;19.080;2022-12-07T00:49:02;100105.91;;;1.73;100.00
53868;BME280;41577;47.470;19.080;2022-12-07T00:49:16;100112.03;;;1.74;100.00
53868;BME280;41577;47.470;19.080;2022-12-07T00:49:31;100109.41;;;1.74;100.00
53868;BME280;41577;47.470;19.080;2022-12-07T00:49:45;100106.91;;;1.72;100.00
53868;BME280;41577;47.470;19.080;2022-12-07T00:50:00;100106.91;;;1.72;100.00
53868;BME280;41577;47.470;19.080;2022-12-07T00:50:14;100106.91;;;1.72;100.00
53868;BME280;41577;47.470;19.080;2022-12-07T00:50:29;100110.34;;;1.73;100.00
53868;BME280;41577;47.470;19.080;2022-12-07T00:50:43;100105.25;;;1.71;100.00
53868;BME280;41577;47.470;19.080;2022-12-07T00:50:59;100105.25;;;1.71;100.00
53868;BME280;41577;47.470;19.080;2022-12-07T00:51:16;100110.50;;;1.71;100.00
53868;BME280;41577;47.470;19.080;2022-12-07T00:51:31;100107.88;;;1.71;100.00
53868;BME280;41577;47.470;19.080;2022-12-07T00:51:45;100110.50;;;1.71;100.00
53868;BME280;41577;47.470;19.080;2022-12-07T00:52:01;100102.63;;;1.71;100.00
53868;BME280;41577;47.470;19.080;2022-12-07T00:52:15;100106.19;;;1.70;100.00
53868;BME280;41577;47.470;19.080;2022-12-07T00:52:30;100106.19;;;1.70;100.00
53868;BME280;41577;47.470;19.080;2022-12-07T00:52:44;100105.38;;;1.70;100.00
53868;BME280;41577;47.470;19.080;2022-12-07T00:52:59;100103.69;;;1.68;100.00
53868;BME280;41577;47.470;19.080;2022-12-07T00:53:15;100104.53;;;1.69;100.00
53868;BME280;41577;47.470;19.080;2022-12-07T00:53:29;100102.88;;;1.68;100.00
53868;BME280;41577;47.470;19.080;2022-12-07T00:53:44;100108.13;;;1.68;100.00
53868;BME280;41577;47.470;19.080;2022-12-07T00:53:58;100101.22;;;1.67;100.00
53868;BME280;41577;47.470;19.080;2022-12-07T00:54:13;100112.56;;;1.67;100.00
53868;BME280;41577;47.470;19.080;2022-12-07T00:54:36;100113.53;;;1.66;100.00
53868;BME280;41577;47.470;19.080;2022-12-07T00:54:50;100099.41;;;1.67;100.00
53868;BME280;41577;47.470;19.080;2022-12-07T00:55:05;100110.06;;;1.66;100.00
53868;BME280;41577;47.470;19.080;2022-12-07T00:55:19;100104.78;;;1.66;100.00
53868;BME280;41577;47.470;19.080;2022-12-07T00:55:37;100103.97;;;1.65;100.00
53868;BME280;41577;47.470;19.080;2022-12-07T00:55:51;100101.47;;;1.64;100.00
53868;BME280;41577;47.470;19.080;2022-12-07T00:56:06;100102.31;;;1.64;100.00
53868;BME280;41577;47.470;19.080;2022-12-07T00:56:21;100107.59;;;1.64;100.00
53868;BME280;41577;47.470;19.080;2022-12-07T00:56:37;100104.09;;;1.64;100.00
53868;BME280;41577;47.470;19.080;2022-12-07T00:56:52;100109.34;;;1.64;100.00
53868;BME280;41577;47.470;19.080;2022-12-07T00:57:06;100105.91;;;1.63;100.00
53868;BME280;41577;47.470;19.080;2022-12-07T00:57:21;100108.66;;;1.62;100.00
53868;BME280;41577;47.470;19.080;2022-12-07T00:57:38;100107.00;;;1.61;100.00
53868;BME280;41577;47.470;19.080;2022-12-07T00:57:52;100100.91;;;1.60;100.00
53868;BME280;41577;47.470;19.080;2022-12-07T00:58:08;100108.81;;;1.60;100.00
53868;BME280;41577;47.470;19.080;2022-12-07T00:58:24;100108.94;;;1.59;100.00
53868;BME280;41577;47.470;19.080;2022-12-07T00:58:37;100104.66;;;1.58;100.00
53868;BME280;41577;47.470;19.080;2022-12-07T00:58:52;100105.59;;;1.57;100.00
53868;BME280;41577;47.470;19.080;2022-12-07T00:59:06;100109.91;;;1.58;100.00
53868;BME280;41577;47.470;19.080;2022-12-07T00:59:21;100099.53;;;1.56;100.00
53868;BME280;41577;47.470;19.080;2022-12-07T00:59:36;100103.81;;;1.57;100.00
53868;BME280;41577;47.470;19.080;2022-12-07T00:59:53;100098.69;;;1.56;100.00
53868;BME280;41577;47.470;19.080;2022-12-07T01:00:08;100096.19;;;1.54;100.00
53868;BME280;41577;47.470;19.080;2022-12-07T01:00:22;100099.66;;;1.55;100.00
53868;BME280;41577;47.470;19.080;2022-12-07T01:00:37;100103.25;;;1.54;100.00
53868;BME280;41577;47.470;19.080;2022-12-07T01:00:52;100096.31;;;1.53;100.00
53868;BME280;41577;47.470;19.080;2022-12-07T01:01:07;100098.94;;;1.53;100.00
53868;BME280;41577;47.470;19.080;2022-12-07T01:01:21;100098.13;;;1.52;100.00
53868;BME280;41577;47.470;19.080;2022-12-07T01:01:36;100093.00;;;1.51;100.00
53868;BME280;41577;47.470;19.080;2022-12-07T01:01:50;100093.84;;;1.51;100.00
53868;BME280;41577;47.470;19.080;2022-12-07T01:02:05;100098.28;;;1.51;100.00
53868;BME280;41577;47.470;19.080;2022-12-07T01:02:20;100100.91;;;1.51;100.00
53868;BME280;41577;47.470;19.080;2022-12-07T01:02:34;100096.59;;;1.50;100.00
53868;BME280;41577;47.470;19.080;2022-12-07T01:02:47;100091.47;;;1.48;100.00
53868;BME280;41577;47.470;19.080;2022-12-07T01:03:01;100094.09;;;1.48;100.00
53868;BME280;41577;47.470;19.080;2022-12-07T01:03:17;100088.97;;;1.46;100.00
53868;BME280;41577;47.470;19.080;2022-12-07T01:03:32;100092.44;;;1.47;100.00
53868;BME280;41577;47.470;19.080;2022-12-07T01:03:46;100093.25;;;1.48;100.00
53868;BME280;41577;47.470;19.080;2022-12-07T01:04:01;100097.69;;;1.47;100.00
53868;BME280;41577;47.470;19.080;2022-12-07T01:04:15;100095.19;;;1.45;100.00
53868;BME280;41577;47.470;19.080;2022-12-07T01:04:30;100095.19;;;1.45;100.00
53868;BME280;41577;47.470;19.080;2022-12-07T01:04:44;100090.78;;;1.46;100.00
53868;BME280;41577;47.470;19.080;2022-12-07T01:04:59;100093.41;;;1.46;100.00
53868;BME280;41577;47.470;19.080;2022-12-07T01:05:14;100099.50;;;1.46;100.00
53868;BME280;41577;47.470;19.080;2022-12-07T01:05:28;100095.19;;;1.45;100.00
53868;BME280;41577;47.470;19.080;2022-12-07T01:05:50;100092.72;;;1.44;100.00
53868;BME280;41577;47.470;19.080;2022-12-07T01:06:05;100093.53;;;1.44;100.00
53868;BME280;41577;47.470;19.080;2022-12-07T01:06:20;100101.44;;;1.44;100.00
53868;BME280;41577;47.470;19.080;2022-12-07T01:06:35;100096.19;;;1.44;100.00
53868;BME280;41577;47.470;19.080;2022-12-07T01:06:49;100101.44;;;1.44;100.00
53868;BME280;41577;47.470;19.080;2022-12-07T01:07:02;100099.63;;;1.45;100.00
53868;BME280;41577;47.470;19.080;2022-12-07T01:07:16;100098.69;;;1.46;100.00
53868;BME280;41577;47.470;19.080;2022-12-07T01:07:32;100092.72;;;1.44;100.00
53868;BME280;41577;47.470;19.080;2022-12-07T01:07:46;100101.44;;;1.44;100.00
53868;BME280;41577;47.470;19.080;2022-12-07T01:08:01;100097.00;;;1.45;100.00
53868;BME280;41577;47.470;19.080;2022-12-07T01:08:15;100097.13;;;1.43;100.00
53868;BME280;41577;47.470;19.080;2022-12-07T01:08:30;100104.06;;;1.44;100.00
53868;BME280;41577;47.470;19.080;2022-12-07T01:08:45;100095.34;;;1.44;100.00
53868;BME280;41577;47.470;19.080;2022-12-07T01:08:59;100097.97;;;1.44;100.00
53868;BME280;41577;47.470;19.080;2022-12-07T01:09:15;100101.44;;;1.44;100.00
53868;BME280;41577;47.470;19.080;2022-12-07T01:09:30;100099.75;;;1.43;100.00
53868;BME280;41577;47.470;19.080;2022-12-07T01:09:45;100105.00;;;1.43;100.00
53868;BME280;41577;47.470;19.080;2022-12-07T01:10:00;100099.91;;;1.42;100.00
53868;BME280;41577;47.470;19.080;2022-12-07T01:10:14;100097.53;;;1.39;100.00
53868;BME280;41577;47.470;19.080;2022-12-07T01:10:29;100106.94;;;1.41;100.00
53868;BME280;41577;47.470;19.080;2022-12-07T01:10:46;100106.13;;;1.41;100.00
53868;BME280;41577;47.470;19.080;2022-12-07T01:11:09;100102.66;;;1.40;100.00
53868;BME280;41577;47.470;19.080;2022-12-07T01:11:28;100106.13;;;1.41;100.00
53868;BME280;41577;47.470;19.080;2022-12-07T01:11:42;100101.69;;;1.41;100.00
53868;BME280;41577;47.470;19.080;2022-12-07T01:11:57;100095.47;;;1.42;100.00
53868;BME280;41577;47.470;19.080;2022-12-07T01:12:11;100101.44;;;1.44;100.00
53868;BME280;41577;47.470;19.080;2022-12-07T01:12:26;100099.75;;;1.43;100.00
53868;BME280;41577;47.470;19.080;2022-12-07T01:12:41;100103.25;;;1.44;100.00
53868;BME280;41577;47.470;19.080;2022-12-07T01:12:56;100106.28;;;1.49;100.00
53868;BME280;41577;47.470;19.080;2022-12-07T01:13:11;100100.91;;;1.51;100.00
53868;BME280;41577;47.470;19.080;2022-12-07T01:13:26;100100.06;;;1.50;100.00
53868;BME280;41577;47.470;19.080;2022-12-07T01:13:41;100098.41;;;1.49;100.00
53868;BME280;41577;47.470;19.080;2022-12-07T01:13:58;100102.13;;;1.46;100.00
53868;BME280;41577;47.470;19.080;2022-12-07T01:14:12;100101.16;;;1.48;100.00
53868;BME280;41577;47.470;19.080;2022-12-07T01:14:26;100104.38;;;1.51;100.00
53868;BME280;41577;47.470;19.080;2022-12-07T01:14:41;100096.47;;;1.51;100.00
53868;BME280;41577;47.470;19.080;2022-12-07T01:14:57;100101.72;;;1.51;100.00
53868;BME280;41577;47.470;19.080;2022-12-07T01:15:13;100102.69;;;1.50;100.00
53868;BME280;41577;47.470;19.080;2022-12-07T01:15:28;100095.91;;;1.48;100.00
53868;BME280;41577;47.470;19.080;2022-12-07T01:15:44;100101.31;;;1.46;100.00
53868;BME280;41577;47.470;19.080;2022-12-07T01:16:00;100101.31;;;1.46;100.00
53868;BME280;41577;47.470;19.080;2022-12-07T01:16:17;100101.44;;;1.44;100.00
53868;BME280;41577;47.470;19.080;2022-12-07T01:16:32;100105.00;;;1.43;100.00
53868;BME280;41577;47.470;19.080;2022-12-07T01:16:46;100101.56;;;1.43;100.00
53868;BME280;41577;47.470;19.080;2022-12-07T01:17:00;100104.19;;;1.43;100.00
53868;BME280;41577;47.470;19.080;2022-12-07T01:17:14;100109.47;;;1.43;100.00
53868;BME280;41577;47.470;19.080;2022-12-07T01:17:29;100103.38;;;1.42;100.00
53868;BME280;41577;47.470;19.080;2022-12-07T01:17:43;100100.84;;;1.41;100.00
53868;BME280;41577;47.470;19.080;2022-12-07T01:17:58;100103.50;;;1.41;100.00
53868;BME280;41577;47.470;19.080;2022-12-07T01:18:12;100091.72;;;1.35;100.00
53868;BME280;41577;47.470;19.080;2022-12-07T01:18:28;100099.22;;;1.40;100.00
53868;BME280;41577;47.470;19.080;2022-12-07T01:18:45;100096.56;;;1.40;100.00